Time;durP1;ratioP1;P1;durP2;ratioP2;P2;SDS_P1;SDS_P2;PMS_P1;PMS_P2;Temp;Humidity;BMP_temperature;BMP_pressure;BME280_temperature;BME280_humidity;BME280_pressure;Samples;Min_cycle;Max_cycle;Signal;HPM_P1;HPM_P2
2023/07/05 00:01:27;;;;;;;1.90;0.90;;;;;;;;;;5078362;28;20554;-69
2023/07/05 00:03:55;;;;;;;1.45;0.88;;;;;;;;;;5077551;28;20404;-69
2023/07/05 00:06:24;;;;;;;2.78;0.77;;;;;;;;;;5079658;28;20050;-69
2023/07/05 00:08:52;;;;;;;1.65;1.02;;;;;;;;;;5078040;28;20044;-69
2023/07/05 00:11:21;;;;;;;1.25;0.70;;;;;;;;;;5078019;28;20136;-67
2023/07/05 00:13:49;;;;;;;2.22;0.82;;;;;;;;;;5075581;28;20052;-68
2023/07/05 00:16:19;;;;;;;1.88;0.88;;;;;;;;;;5073008;28;20059;-69
2023/07/05 00:18:48;;;;;;;1.42;0.75;;;;;;;;;;5078644;28;20048;-69
2023/07/05 00:21:16;;;;;;;1.52;0.90;;;;;;;;;;5078297;28;20048;-69
2023/07/05 00:23:46;;;;;;;1.15;0.60;;;;;;;;;;5078072;28;20044;-70
2023/07/05 00:26:15;;;;;;;1.38;0.90;;;;;;;;;;5075449;28;20090;-69
2023/07/05 00:28:43;;;;;;;0.98;0.60;;;;;;;;;;5072705;28;20048;-69
2023/07/05 00:31:12;;;;;;;1.48;0.60;;;;;;;;;;5074735;28;20064;-69
2023/07/05 00:33:41;;;;;;;2.17;0.77;;;;;;;;;;5073909;28;20041;-69
2023/07/05 00:36:10;;;;;;;1.45;0.80;;;;;;;;;;5075638;28;20169;-69
2023/07/05 00:38:38;;;;;;;1.42;0.95;;;;;;;;;;5073706;28;20075;-69
2023/07/05 00:41:06;;;;;;;4.25;0.90;;;;;;;;;;5078613;28;20124;-69
2023/07/05 00:43:35;;;;;;;1.27;0.90;;;;;;;;;;5076993;28;20495;-70
2023/07/05 00:46:06;;;;;;;1.73;0.82;;;;;;;;;;5074922;28;20458;-70
2023/07/05 00:48:37;;;;;;;1.52;0.73;;;;;;;;;;5076923;28;20148;-69
2023/07/05 00:51:13;;;;;;;1.58;0.80;;;;;;;;;;5076298;28;20097;-68
2023/07/05 00:53:41;;;;;;;1.60;0.82;;;;;;;;;;5075971;28;20067;-69
2023/07/05 00:56:12;;;;;;;0.93;0.70;;;;;;;;;;5075639;28;20084;-69
2023/07/05 00:58:41;;;;;;;1.45;0.63;;;;;;;;;;5078976;28;20048;-69
2023/07/05 01:01:09;;;;;;;1.45;0.90;;;;;;;;;;5078945;28;20117;-69
2023/07/05 01:03:38;;;;;;;1.55;0.70;;;;;;;;;;5073420;23;20174;-76
2023/07/05 01:06:08;;;;;;;2.03;0.70;;;;;;;;;;5052474;28;20045;-68
2023/07/05 01:08:36;;;;;;;1.13;0.75;;;;;;;;;;5053445;28;20042;-75
2023/07/05 01:11:08;;;;;;;1.00;0.73;;;;;;;;;;5055145;28;20095;-69
2023/07/05 01:13:40;;;;;;;1.90;1.10;;;;;;;;;;5055533;28;20528;-68
2023/07/05 01:16:17;;;;;;;1.58;0.85;;;;;;;;;;5051193;28;20057;-68
2023/07/05 01:18:48;;;;;;;1.20;0.82;;;;;;;;;;5060651;28;20443;-69
2023/07/05 01:21:22;;;;;;;1.98;0.73;;;;;;;;;;5061427;28;20072;-68
2023/07/05 01:24:00;;;;;;;3.00;1.38;;;;;;;;;;5059400;28;20076;-69
2023/07/05 01:26:35;;;;;;;2.20;1.27;;;;;;;;;;5050998;28;20049;-72
2023/07/05 01:29:24;;;;;;;2.22;1.15;;;;;;;;;;5056253;28;20079;-69
2023/07/05 01:31:56;;;;;;;2.08;1.50;;;;;;;;;;5051648;28;20044;-71
2023/07/05 01:34:33;;;;;;;1.48;0.68;;;;;;;;;;5061510;28;20132;-67
2023/07/05 01:37:04;;;;;;;5.40;1.10;;;;;;;;;;5054012;28;20139;-74
2023/07/05 01:39:33;;;;;;;1.80;0.90;;;;;;;;;;5054868;28;20049;-68
2023/07/05 01:42:02;;;;;;;4.43;1.00;;;;;;;;;;5055678;28;20056;-73
2023/07/05 01:44:31;;;;;;;1.23;0.73;;;;;;;;;;5056320;28;20901;-71
2023/07/05 01:47:05;;;;;;;1.92;1.20;;;;;;;;;;5053974;28;20080;-67
2023/07/05 01:49:41;;;;;;;1.20;1.10;;;;;;;;;;5057938;28;20130;-71
2023/07/05 01:52:12;;;;;;;3.17;0.98;;;;;;;;;;5053688;28;20390;-73
2023/07/05 01:54:44;;;;;;;3.42;0.82;;;;;;;;;;5051216;28;20148;-71
2023/07/05 01:57:16;;;;;;;3.67;0.95;;;;;;;;;;5057812;28;20048;-69
2023/07/05 01:59:47;;;;;;;2.97;0.98;;;;;;;;;;5056905;28;20136;-68
2023/07/05 02:02:18;;;;;;;4.13;1.00;;;;;;;;;;5054310;28;20057;-68
2023/07/05 02:04:48;;;;;;;3.50;1.10;;;;;;;;;;5056867;28;20037;-67
2023/07/05 02:07:16;;;;;;;1.77;1.05;;;;;;;;;;5055723;28;20507;-67
2023/07/05 02:09:45;;;;;;;1.48;0.82;;;;;;;;;;5059206;28;20136;-67
2023/07/05 02:12:13;;;;;;;2.45;1.00;;;;;;;;;;5050926;28;20074;-72
2023/07/05 02:14:41;;;;;;;1.88;1.13;;;;;;;;;;5057615;28;20991;-70
2023/07/05 02:17:10;;;;;;;2.15;1.17;;;;;;;;;;5056551;28;20087;-68
2023/07/05 02:19:39;;;;;;;2.35;0.98;;;;;;;;;;5051597;28;20452;-67
2023/07/05 02:22:08;;;;;;;4.88;0.90;;;;;;;;;;5053898;28;20147;-70
2023/07/05 02:24:37;;;;;;;2.13;0.90;;;;;;;;;;5054096;28;20136;-66
2023/07/05 02:27:05;;;;;;;1.65;0.90;;;;;;;;;;5053941;28;20056;-67
2023/07/05 02:29:34;;;;;;;1.27;0.85;;;;;;;;;;5055890;28;20126;-69
2023/07/05 02:32:02;;;;;;;2.22;1.02;;;;;;;;;;5056927;28;20075;-68
2023/07/05 02:34:31;;;;;;;1.75;1.10;;;;;;;;;;5054940;28;20417;-69
2023/07/05 02:37:00;;;;;;;2.38;1.10;;;;;;;;;;5061740;28;20052;-68
2023/07/05 02:39:29;;;;;;;2.53;1.17;;;;;;;;;;5050296;28;20546;-69
2023/07/05 02:41:57;;;;;;;1.98;1.00;;;;;;;;;;5053912;28;20049;-67
2023/07/05 02:44:26;;;;;;;1.50;0.85;;;;;;;;;;5059994;28;20044;-72
2023/07/05 02:46:54;;;;;;;0.98;0.73;;;;;;;;;;5057802;28;20079;-72
2023/07/05 02:49:23;;;;;;;1.92;1.00;;;;;;;;;;5054953;28;20048;-67
2023/07/05 02:51:51;;;;;;;2.67;0.98;;;;;;;;;;5052431;28;20497;-68
2023/07/05 02:54:21;;;;;;;1.30;0.85;;;;;;;;;;5055836;28;20082;-69
2023/07/05 02:56:49;;;;;;;2.88;1.15;;;;;;;;;;5059579;28;20064;-70
2023/07/05 02:59:18;;;;;;;3.47;1.30;;;;;;;;;;5061194;28;20073;-67
2023/07/05 03:01:46;;;;;;;2.00;1.08;;;;;;;;;;5056391;28;20485;-67
2023/07/05 03:04:15;;;;;;;3.30;1.00;;;;;;;;;;5054832;28;20063;-71
2023/07/05 03:06:43;;;;;;;1.77;0.77;;;;;;;;;;5050455;28;20041;-68
2023/07/05 03:09:11;;;;;;;1.75;0.98;;;;;;;;;;5054165;28;20044;-69
2023/07/05 03:11:41;;;;;;;1.63;1.10;;;;;;;;;;5061807;28;20049;-67
2023/07/05 03:14:09;;;;;;;2.97;1.08;;;;;;;;;;5053633;28;20136;-68
2023/07/05 03:16:38;;;;;;;2.13;1.10;;;;;;;;;;5055066;28;20385;-67
2023/07/05 03:19:09;;;;;;;1.58;0.90;;;;;;;;;;5053879;28;20060;-67
2023/07/05 03:21:37;;;;;;;1.85;0.93;;;;;;;;;;5058247;28;20064;-67
2023/07/05 03:24:06;;;;;;;0.88;0.70;;;;;;;;;;5058928;28;20132;-66
2023/07/05 03:26:34;;;;;;;3.92;1.00;;;;;;;;;;5056367;28;20123;-70
2023/07/05 03:29:04;;;;;;;1.98;0.90;;;;;;;;;;5053458;28;20498;-68
2023/07/05 03:31:33;;;;;;;1.50;1.10;;;;;;;;;;5052561;28;20044;-70
2023/07/05 03:34:01;;;;;;;4.32;1.23;;;;;;;;;;5056245;28;20110;-73
2023/07/05 03:36:30;;;;;;;3.97;1.30;;;;;;;;;;5051212;28;20076;-67
2023/07/05 03:38:58;;;;;;;2.90;1.08;;;;;;;;;;5056971;28;20510;-67
2023/07/05 03:41:26;;;;;;;1.60;0.80;;;;;;;;;;5046839;28;20167;-68
2023/07/05 03:43:56;;;;;;;1.92;1.05;;;;;;;;;;5057922;28;20053;-67
2023/07/05 03:46:26;;;;;;;3.33;0.95;;;;;;;;;;5054979;28;20130;-67
2023/07/05 03:48:54;;;;;;;2.35;1.10;;;;;;;;;;5058460;28;20049;-67
2023/07/05 03:51:23;;;;;;;2.90;0.80;;;;;;;;;;5059253;28;20440;-67
2023/07/05 03:53:52;;;;;;;1.50;0.75;;;;;;;;;;5053833;28;20151;-67
2023/07/05 03:56:21;;;;;;;1.70;0.80;;;;;;;;;;5050912;28;20526;-69
2023/07/05 03:58:49;;;;;;;1.95;0.95;;;;;;;;;;5054419;28;20476;-69
2023/07/05 04:01:19;;;;;;;2.63;1.00;;;;;;;;;;5052202;28;20451;-66
2023/07/05 04:03:50;;;;;;;2.55;1.23;;;;;;;;;;5051018;28;20049;-67
2023/07/05 04:06:19;;;;;;;3.33;1.45;;;;;;;;;;5051391;28;20056;-66
2023/07/05 04:08:47;;;;;;;2.60;1.25;;;;;;;;;;5055236;28;20076;-66
2023/07/05 04:11:17;;;;;;;2.20;0.95;;;;;;;;;;5052190;28;20090;-68
2023/07/05 04:13:46;;;;;;;1.80;0.93;;;;;;;;;;5053010;28;20048;-67
2023/07/05 04:16:16;;;;;;;2.53;1.30;;;;;;;;;;5054994;28;20130;-71
2023/07/05 04:18:45;;;;;;;4.40;1.58;;;;;;;;;;5049048;28;20117;-69
2023/07/05 04:21:15;;;;;;;2.22;1.08;;;;;;;;;;5054177;28;20838;-73
2023/07/05 04:23:44;;;;;;;3.42;1.20;;;;;;;;;;5055000;28;20057;-75
2023/07/05 04:26:13;;;;;;;2.63;1.02;;;;;;;;;;5049568;28;20049;-73
2023/07/05 04:28:42;;;;;;;1.70;1.13;;;;;;;;;;5050580;28;20744;-66
2023/07/05 04:31:11;;;;;;;2.40;1.38;;;;;;;;;;5054126;28;20477;-67
2023/07/05 04:33:40;;;;;;;2.35;1.10;;;;;;;;;;5051816;28;20044;-68
2023/07/05 04:36:08;;;;;;;4.95;1.00;;;;;;;;;;5052487;28;20695;-74
2023/07/05 04:38:55;;;;;;;2.03;1.05;;;;;;;;;;5057764;28;20048;-73
2023/07/05 04:41:24;;;;;;;2.50;1.20;;;;;;;;;;5059050;28;20052;-68
2023/07/05 04:43:52;;;;;;;2.45;1.00;;;;;;;;;;5056696;28;20158;-68
2023/07/05 04:46:21;;;;;;;3.78;1.73;;;;;;;;;;5057850;28;20061;-70
2023/07/05 04:48:50;;;;;;;3.55;1.30;;;;;;;;;;5053905;28;20041;-66
2023/07/05 04:51:18;;;;;;;2.60;0.82;;;;;;;;;;5052184;28;20045;-69
2023/07/05 04:53:47;;;;;;;2.55;1.10;;;;;;;;;;5055514;28;20118;-70
2023/07/05 04:56:16;;;;;;;1.35;1.00;;;;;;;;;;5060355;28;20175;-67
2023/07/05 04:58:48;;;;;;;4.20;1.13;;;;;;;;;;5051340;28;20060;-72
2023/07/05 05:01:17;;;;;;;2.47;0.90;;;;;;;;;;5060336;28;20072;-73
2023/07/05 05:03:46;;;;;;;2.45;1.02;;;;;;;;;;5057135;28;20076;-67
2023/07/05 05:06:14;;;;;;;1.83;1.08;;;;;;;;;;5056090;28;20143;-68
2023/07/05 05:08:42;;;;;;;2.58;1.10;;;;;;;;;;5058429;28;20051;-73
2023/07/05 05:11:11;;;;;;;2.25;1.10;;;;;;;;;;5060575;28;20465;-72
2023/07/05 05:13:41;;;;;;;1.80;1.10;;;;;;;;;;5056141;28;20040;-70
2023/07/05 05:16:09;;;;;;;2.08;1.08;;;;;;;;;;5058858;28;20397;-67
2023/07/05 05:18:38;;;;;;;1.40;0.98;;;;;;;;;;5053297;28;20092;-72
2023/07/05 05:21:06;;;;;;;3.30;1.13;;;;;;;;;;5063685;28;20131;-67
2023/07/05 05:23:35;;;;;;;2.38;1.00;;;;;;;;;;5058290;28;20053;-70
2023/07/05 05:26:04;;;;;;;1.65;1.20;;;;;;;;;;5054216;28;20444;-67
2023/07/05 05:28:32;;;;;;;3.72;1.30;;;;;;;;;;5052274;28;20041;-72
2023/07/05 05:31:06;;;;;;;1.75;0.82;;;;;;;;;;5051736;28;20090;-69
2023/07/05 05:33:35;;;;;;;2.63;1.30;;;;;;;;;;5051372;28;20476;-72
2023/07/05 05:36:03;;;;;;;1.70;1.10;;;;;;;;;;5049675;28;20049;-67
2023/07/05 05:38:32;;;;;;;2.58;1.23;;;;;;;;;;5055838;28;20051;-65
2023/07/05 05:41:04;;;;;;;3.13;1.48;;;;;;;;;;5058338;28;20509;-65
2023/07/05 05:43:32;;;;;;;3.50;1.10;;;;;;;;;;5062908;28;20048;-67
2023/07/05 05:46:01;;;;;;;2.83;1.15;;;;;;;;;;5063404;28;20493;-66
2023/07/05 05:48:31;;;;;;;3.00;1.10;;;;;;;;;;5065366;28;20048;-64
2023/07/05 05:50:59;;;;;;;3.22;1.17;;;;;;;;;;5061393;28;20040;-67
2023/07/05 05:53:27;;;;;;;3.03;1.13;;;;;;;;;;5061330;28;20080;-64
2023/07/05 05:55:57;;;;;;;2.85;1.55;;;;;;;;;;5051661;28;20127;-65
2023/07/05 05:58:26;;;;;;;5.47;1.50;;;;;;;;;;5057057;28;20048;-71
2023/07/05 06:00:54;;;;;;;1.90;1.00;;;;;;;;;;5057750;28;20751;-63
2023/07/05 06:03:23;;;;;;;3.33;1.60;;;;;;;;;;5054738;28;20053;-64
2023/07/05 06:05:55;;;;;;;2.30;1.08;;;;;;;;;;5054131;28;20052;-64
2023/07/05 06:08:23;;;;;;;1.65;1.00;;;;;;;;;;5058184;28;20213;-70
2023/07/05 06:11:02;;;;;;;1.80;1.17;;;;;;;;;;5057349;28;20098;-67
2023/07/05 06:13:31;;;;;;;3.13;1.20;;;;;;;;;;5051428;28;20072;-65
2023/07/05 06:16:01;;;;;;;1.75;1.25;;;;;;;;;;5060383;28;20056;-64
2023/07/05 06:18:42;;;;;;;2.45;1.10;;;;;;;;;;5050748;28;20088;-66
2023/07/05 06:21:13;;;;;;;4.35;1.20;;;;;;;;;;5054694;28;20450;-64
2023/07/05 06:23:41;;;;;;;2.45;1.10;;;;;;;;;;5052908;28;20468;-67
2023/07/05 06:26:10;;;;;;;3.90;0.90;;;;;;;;;;5057099;28;20041;-65
2023/07/05 06:28:39;;;;;;;3.63;1.27;;;;;;;;;;5049200;28;20129;-64
2023/07/05 06:31:07;;;;;;;2.72;1.15;;;;;;;;;;5055635;28;20060;-66
2023/07/05 06:33:36;;;;;;;8.13;1.20;;;;;;;;;;5051409;28;20033;-67
2023/07/05 06:36:06;;;;;;;2.42;1.10;;;;;;;;;;5054550;28;20052;-68
2023/07/05 06:38:36;;;;;;;4.15;1.20;;;;;;;;;;5055204;28;20048;-65
2023/07/05 06:41:05;;;;;;;2.67;1.05;;;;;;;;;;5055463;28;20554;-65
2023/07/05 06:43:33;;;;;;;2.30;1.23;;;;;;;;;;5051944;28;20080;-64
2023/07/05 06:46:01;;;;;;;2.20;1.30;;;;;;;;;;5052480;28;20060;-65
2023/07/05 06:48:30;;;;;;;3.58;1.40;;;;;;;;;;5055908;28;21650;-68
2023/07/05 06:50:59;;;;;;;3.10;1.08;;;;;;;;;;5055221;28;20478;-66
2023/07/05 06:53:28;;;;;;;3.67;1.15;;;;;;;;;;5052644;28;20064;-66
2023/07/05 06:56:17;;;;;;;3.67;1.10;;;;;;;;;;5055725;28;20853;-66
2023/07/05 06:58:45;;;;;;;4.03;1.45;;;;;;;;;;5050285;28;20520;-66
2023/07/05 07:01:13;;;;;;;1.88;1.00;;;;;;;;;;5051210;28;20103;-65
2023/07/05 07:03:42;;;;;;;2.80;1.08;;;;;;;;;;5052811;28;20048;-71
2023/07/05 07:06:11;;;;;;;3.50;1.40;;;;;;;;;;5053480;28;20048;-67
2023/07/05 07:08:39;;;;;;;2.20;0.90;;;;;;;;;;5055101;28;20052;-66
2023/07/05 07:11:09;;;;;;;3.75;1.50;;;;;;;;;;5055210;28;20044;-66
2023/07/05 07:13:39;;;;;;;2.40;1.10;;;;;;;;;;5049523;28;20080;-67
2023/07/05 07:16:08;;;;;;;4.90;1.40;;;;;;;;;;5056357;28;20052;-65
2023/07/05 07:18:37;;;;;;;2.88;1.00;;;;;;;;;;5052140;28;20056;-67
2023/07/05 07:21:07;;;;;;;1.98;1.33;;;;;;;;;;5058017;28;20131;-66
2023/07/05 07:23:36;;;;;;;2.50;1.20;;;;;;;;;;5052974;28;20081;-67
2023/07/05 07:26:06;;;;;;;2.42;1.00;;;;;;;;;;5057871;28;20140;-65
2023/07/05 07:28:34;;;;;;;3.42;1.30;;;;;;;;;;5054857;28;20580;-69
2023/07/05 07:31:11;;;;;;;1.75;1.08;;;;;;;;;;5052626;28;20114;-68
2023/07/05 07:33:39;;;;;;;3.17;1.20;;;;;;;;;;5055874;28;20048;-68
2023/07/05 07:36:08;;;;;;;2.83;1.05;;;;;;;;;;5062141;28;20504;-69
2023/07/05 07:38:37;;;;;;;3.67;1.10;;;;;;;;;;5058123;28;20097;-66
2023/07/05 07:41:05;;;;;;;2.38;1.00;;;;;;;;;;5054156;28;20052;-69
2023/07/05 07:43:34;;;;;;;2.70;1.27;;;;;;;;;;5055068;28;20053;-66
2023/07/05 07:46:07;;;;;;;3.40;1.13;;;;;;;;;;5057827;28;20167;-66
2023/07/05 07:48:37;;;;;;;2.47;1.10;;;;;;;;;;5054159;28;20459;-65
2023/07/05 07:51:06;;;;;;;3.50;1.33;;;;;;;;;;5055238;28;20117;-65
2023/07/05 07:53:34;;;;;;;2.88;0.80;;;;;;;;;;5056104;28;20075;-66
2023/07/05 07:56:10;;;;;;;2.60;1.20;;;;;;;;;;5050908;28;20049;-69
2023/07/05 07:58:38;;;;;;;3.80;1.02;;;;;;;;;;5054900;28;20048;-65
2023/07/05 08:01:14;;;;;;;2.55;1.17;;;;;;;;;;5056436;28;20048;-65
2023/07/05 08:03:43;;;;;;;2.35;0.98;;;;;;;;;;5052904;28;20049;-67
2023/07/05 08:06:13;;;;;;;4.55;1.55;;;;;;;;;;5055289;28;20600;-67
2023/07/05 08:08:41;;;;;;;1.83;0.88;;;;;;;;;;5056771;28;20363;-70
2023/07/05 08:11:10;;;;;;;3.47;1.10;;;;;;;;;;5055735;28;20102;-65
2023/07/05 08:13:40;;;;;;;2.38;1.30;;;;;;;;;;5057178;28;20049;-65
2023/07/05 08:16:09;;;;;;;5.53;1.30;;;;;;;;;;5055096;28;20049;-66
2023/07/05 08:18:37;;;;;;;3.38;1.13;;;;;;;;;;5054781;28;20045;-66
2023/07/05 08:21:07;;;;;;;3.25;1.20;;;;;;;;;;5058177;28;20328;-70
2023/07/05 08:23:35;;;;;;;2.63;1.23;;;;;;;;;;5056208;28;20493;-66
2023/07/05 08:26:04;;;;;;;2.83;1.20;;;;;;;;;;5058117;28;20900;-65
2023/07/05 08:28:32;;;;;;;2.65;1.17;;;;;;;;;;5056834;28;20044;-70
2023/07/05 08:31:02;;;;;;;4.40;1.67;;;;;;;;;;5064943;28;20048;-70
2023/07/05 08:33:32;;;;;;;3.25;1.50;;;;;;;;;;5058687;28;20044;-70
2023/07/05 08:36:08;;;;;;;3.90;1.67;;;;;;;;;;5062743;28;20497;-65
2023/07/05 08:38:40;;;;;;;5.00;1.52;;;;;;;;;;5062088;28;20047;-67
2023/07/05 08:41:13;;;;;;;1.95;1.30;;;;;;;;;;5062832;28;20071;-71
2023/07/05 08:43:43;;;;;;;3.70;1.65;;;;;;;;;;5062283;28;20638;-64
2023/07/05 08:46:14;;;;;;;4.43;1.42;;;;;;;;;;5059554;28;20075;-71
2023/07/05 08:48:43;;;;;;;3.00;1.55;;;;;;;;;;5057727;28;20055;-65
2023/07/05 08:51:13;;;;;;;2.50;1.38;;;;;;;;;;5064789;28;20139;-66
2023/07/05 08:53:47;;;;;;;2.60;1.25;;;;;;;;;;5059933;28;20537;-67
2023/07/05 08:56:18;;;;;;;3.13;2.20;;;;;;;;;;5056811;28;20106;-67
2023/07/05 08:58:49;;;;;;;3.17;1.38;;;;;;;;;;5057952;28;20526;-66
2023/07/05 09:01:19;;;;;;;2.33;1.42;;;;;;;;;;5061929;28;20056;-66
2023/07/05 09:03:47;;;;;;;2.45;1.23;;;;;;;;;;5060818;28;20135;-69
2023/07/05 09:06:22;;;;;;;5.50;1.58;;;;;;;;;;5060297;28;20052;-67
2023/07/05 09:08:57;;;;;;;3.40;1.42;;;;;;;;;;5063298;28;20126;-66
2023/07/05 09:11:32;;;;;;;3.60;1.75;;;;;;;;;;5061571;28;20068;-65
2023/07/05 09:14:04;;;;;;;3.97;1.33;;;;;;;;;;5065918;28;20129;-65
2023/07/05 09:16:39;;;;;;;2.20;1.13;;;;;;;;;;5066712;28;20060;-67
2023/07/05 09:19:13;;;;;;;4.13;1.50;;;;;;;;;;5062590;28;20044;-65
2023/07/05 09:21:44;;;;;;;3.47;1.50;;;;;;;;;;5066715;28;20091;-66
2023/07/05 09:24:19;;;;;;;2.58;1.63;;;;;;;;;;5063762;28;20484;-65
2023/07/05 09:26:48;;;;;;;;;;;;;;;;;;5065460;28;20040;-67
2023/07/05 09:29:18;;;;;;;1.95;1.08;;;;;;;;;;5061127;28;19977;-66
2023/07/05 09:31:48;;;;;;;2.97;1.30;;;;;;;;;;5057845;28;20059;-69
2023/07/05 09:34:24;;;;;;;2.20;1.33;;;;;;;;;;5063011;28;20048;-70
2023/07/05 09:36:52;;;;;;;4.25;1.55;;;;;;;;;;5061489;28;20123;-67
2023/07/05 09:39:29;;;;;;;3.95;1.02;;;;;;;;;;5061362;28;20055;-65
2023/07/05 09:42:00;;;;;;;2.13;1.27;;;;;;;;;;5059472;28;20040;-65
2023/07/05 09:44:29;;;;;;;2.53;1.35;;;;;;;;;;5060438;28;20516;-67
2023/07/05 09:46:57;;;;;;;2.78;1.40;;;;;;;;;;5058459;28;20555;-65
2023/07/05 09:49:27;;;;;;;4.65;1.23;;;;;;;;;;5058866;28;20049;-66
2023/07/05 09:51:59;;;;;;;2.15;1.40;;;;;;;;;;5056587;28;20555;-67
2023/07/05 09:54:31;;;;;;;2.95;1.40;;;;;;;;;;5061087;28;20070;-70
2023/07/05 09:57:02;;;;;;;2.22;1.50;;;;;;;;;;5056801;28;20040;-65
2023/07/05 09:59:31;;;;;;;4.10;1.60;;;;;;;;;;5057452;28;20460;-66
2023/07/05 10:02:08;;;;;;;3.20;1.95;;;;;;;;;;5056142;28;20091;-69
2023/07/05 10:04:44;;;;;;;5.53;1.60;;;;;;;;;;5058240;28;20053;-65
2023/07/05 10:07:15;;;;;;;3.50;1.70;;;;;;;;;;5059302;28;20048;-70
2023/07/05 10:09:56;;;;;;;2.65;1.48;;;;;;;;;;5058489;28;20056;-66
2023/07/05 10:12:25;;;;;;;4.22;1.60;;;;;;;;;;5056919;28;20490;-67
2023/07/05 10:14:57;;;;;;;2.25;1.45;;;;;;;;;;5053750;28;20076;-66
2023/07/05 10:17:39;;;;;;;2.88;1.60;;;;;;;;;;5056511;28;20067;-66
2023/07/05 10:20:18;;;;;;;4.25;1.90;;;;;;;;;;5059451;28;20136;-66
2023/07/05 10:22:46;;;;;;;3.45;1.77;;;;;;;;;;5053040;28;20052;-68
2023/07/05 10:25:18;;;;;;;2.58;1.70;;;;;;;;;;5057993;28;20045;-67
2023/07/05 10:27:48;;;;;;;2.80;1.60;;;;;;;;;;5050062;28;20791;-65
2023/07/05 10:30:18;;;;;;;2.95;1.80;;;;;;;;;;5054871;28;20132;-68
2023/07/05 10:32:49;;;;;;;4.28;1.85;;;;;;;;;;5049257;28;20091;-71
2023/07/05 10:35:22;;;;;;;2.60;1.80;;;;;;;;;;5054788;28;20043;-67
2023/07/05 10:37:50;;;;;;;3.65;1.63;;;;;;;;;;5054641;28;20058;-66
2023/07/05 10:40:21;;;;;;;3.88;1.67;;;;;;;;;;5055189;28;20059;-69
2023/07/05 10:42:52;;;;;;;3.95;1.80;;;;;;;;;;5055348;28;20497;-65
2023/07/05 10:45:21;;;;;;;5.38;2.22;;;;;;;;;;5054983;28;20055;-66
2023/07/05 10:47:52;;;;;;;7.00;1.88;;;;;;;;;;5059317;28;20090;-66
2023/07/05 10:50:25;;;;;;;3.25;1.80;;;;;;;;;;5057436;28;20044;-66
2023/07/05 10:52:57;;;;;;;4.38;2.17;;;;;;;;;;5051632;28;20603;-63
2023/07/05 10:55:34;;;;;;;2.90;1.50;;;;;;;;;;5051867;28;20044;-66
2023/07/05 10:58:06;;;;;;;4.95;1.80;;;;;;;;;;5054865;28;20057;-67
2023/07/05 11:00:38;;;;;;;5.90;2.10;;;;;;;;;;5052827;28;20045;-66
2023/07/05 11:03:11;;;;;;;6.65;1.95;;;;;;;;;;5055389;28;20052;-69
2023/07/05 11:05:42;;;;;;;2.67;1.55;;;;;;;;;;5058011;28;20060;-66
2023/07/05 11:08:17;;;;;;;5.55;1.55;;;;;;;;;;5051566;28;20080;-67
2023/07/05 11:10:48;;;;;;;4.47;1.80;;;;;;;;;;5055873;28;20109;-67
2023/07/05 11:13:18;;;;;;;3.83;2.10;;;;;;;;;;5053528;28;20139;-70
2023/07/05 11:15:47;;;;;;;4.85;2.10;;;;;;;;;;5056858;28;20088;-67
2023/07/05 11:18:16;;;;;;;5.18;2.13;;;;;;;;;;5053002;28;20160;-67
2023/07/05 11:20:49;;;;;;;5.53;2.03;;;;;;;;;;5051778;28;20056;-69
2023/07/05 11:23:36;;;;;;;4.47;2.42;;;;;;;;;;5049296;28;20056;-68
2023/07/05 11:26:06;;;;;;;5.80;2.08;;;;;;;;;;5048264;28;20621;-66
2023/07/05 11:28:35;;;;;;;5.90;2.13;;;;;;;;;;5049789;28;20099;-68
2023/07/05 11:31:04;;;;;;;3.90;1.95;;;;;;;;;;5056939;28;20040;-68
2023/07/05 11:33:33;;;;;;;5.00;2.17;;;;;;;;;;5048526;28;20073;-67
2023/07/05 11:36:05;;;;;;;5.05;2.10;;;;;;;;;;5054394;28;20062;-67
2023/07/05 11:38:56;;;;;;;4.43;2.17;;;;;;;;;;5050248;28;20417;-65
2023/07/05 11:41:30;;;;;;;5.03;2.35;;;;;;;;;;5055355;28;20067;-66
2023/07/05 11:44:01;;;;;;;4.10;1.90;;;;;;;;;;5056653;28;20498;-67
2023/07/05 11:46:37;;;;;;;2.42;1.42;;;;;;;;;;5054052;28;20098;-68
2023/07/05 11:49:26;;;;;;;2.55;1.38;;;;;;;;;;5054358;28;20052;-67
2023/07/05 11:51:56;;;;;;;4.55;1.88;;;;;;;;;;5051291;28;20409;-67
2023/07/05 11:54:29;;;;;;;4.88;1.92;;;;;;;;;;5052053;28;20044;-67
2023/07/05 11:57:01;;;;;;;4.22;1.50;;;;;;;;;;5053573;28;20143;-67
2023/07/05 11:59:34;;;;;;;5.03;1.73;;;;;;;;;;5057467;28;20649;-71
2023/07/05 12:02:07;;;;;;;5.10;2.10;;;;;;;;;;5056464;28;20649;-69
2023/07/05 12:04:38;;;;;;;6.20;1.48;;;;;;;;;;5056602;28;20056;-67
2023/07/05 12:07:06;;;;;;;2.97;1.52;;;;;;;;;;5055717;28;20568;-66
2023/07/05 12:09:37;;;;;;;3.85;1.23;;;;;;;;;;5054173;28;20098;-71
2023/07/05 12:12:07;;;;;;;5.03;1.55;;;;;;;;;;5056644;28;20118;-67
2023/07/05 12:14:38;;;;;;;3.38;1.27;;;;;;;;;;5050829;28;20554;-67
2023/07/05 12:17:10;;;;;;;3.63;1.58;;;;;;;;;;5055865;28;20569;-68
2023/07/05 12:19:39;;;;;;;2.28;1.15;;;;;;;;;;5055184;28;20055;-67
2023/07/05 12:22:11;;;;;;;3.70;1.50;;;;;;;;;;5055742;28;20089;-66
2023/07/05 12:24:42;;;;;;;2.83;1.38;;;;;;;;;;5056942;28;20481;-67
2023/07/05 12:27:18;;;;;;;4.13;1.35;;;;;;;;;;5052957;28;20046;-66
2023/07/05 12:29:50;;;;;;;3.67;1.95;;;;;;;;;;5054330;28;20114;-70
2023/07/05 12:32:20;;;;;;;3.10;1.50;;;;;;;;;;5056357;28;20037;-67
2023/07/05 12:34:48;;;;;;;4.35;2.00;;;;;;;;;;5058846;28;20063;-69
2023/07/05 12:37:38;;;;;;;3.80;1.45;;;;;;;;;;5054493;28;20060;-69
2023/07/05 12:40:13;;;;;;;2.47;1.48;;;;;;;;;;5053865;28;20138;-67
2023/07/05 12:42:50;;;;;;;3.30;1.60;;;;;;;;;;5051395;28;20492;-66
2023/07/05 12:45:19;;;;;;;3.80;1.80;;;;;;;;;;5057899;28;20443;-67
2023/07/05 12:47:48;;;;;;;3.97;1.45;;;;;;;;;;5045470;28;20045;-66
2023/07/05 12:50:20;;;;;;;5.72;1.48;;;;;;;;;;5052543;28;20476;-69
2023/07/05 12:53:05;;;;;;;2.83;1.30;;;;;;;;;;5052577;28;20132;-66
2023/07/05 12:55:34;;;;;;;2.78;1.17;;;;;;;;;;5050837;28;20044;-67
2023/07/05 12:58:06;;;;;;;2.92;1.15;;;;;;;;;;5053549;28;20058;-66
2023/07/05 13:00:35;;;;;;;4.28;1.40;;;;;;;;;;5059183;28;20041;-67
2023/07/05 13:03:04;;;;;;;2.65;1.40;;;;;;;;;;5051465;28;20061;-66
2023/07/05 13:05:33;;;;;;;2.70;1.17;;;;;;;;;;5052790;28;20075;-65
2023/07/05 13:08:02;;;;;;;2.97;1.30;;;;;;;;;;5051154;28;20044;-65
2023/07/05 13:10:36;;;;;;;3.38;1.63;;;;;;;;;;5052457;28;20049;-70
2023/07/05 13:15:59;;;;;;;2.33;1.20;;;;;;;;;;5052200;27;20476;-66
2023/07/05 13:18:29;;;;;;;2.42;1.20;;;;;;;;;;5026339;28;20054;-66
2023/07/05 13:21:11;;;;;;;4.35;1.45;;;;;;;;;;5027905;28;20049;-68
2023/07/05 13:23:49;;;;;;;2.25;1.13;;;;;;;;;;5022851;28;20084;-68
2023/07/05 13:26:30;;;;;;;4.03;1.95;;;;;;;;;;5031085;28;20084;-64
2023/07/05 13:28:59;;;;;;;1.70;0.82;;;;;;;;;;5031797;28;20443;-65
2023/07/05 13:31:29;;;;;;;2.25;1.20;;;;;;;;;;5028143;28;20045;-64
2023/07/05 13:33:58;;;;;;;2.78;1.15;;;;;;;;;;5020565;28;20056;-69
2023/07/05 13:36:27;;;;;;;3.60;1.30;;;;;;;;;;5024314;28;20612;-66
2023/07/05 13:38:56;;;;;;;3.85;1.10;;;;;;;;;;5029095;28;20041;-64
2023/07/05 13:41:25;;;;;;;2.67;1.30;;;;;;;;;;5029577;28;20045;-64
2023/07/05 13:43:54;;;;;;;2.08;1.20;;;;;;;;;;5022227;28;20345;-65
2023/07/05 13:46:23;;;;;;;1.80;1.20;;;;;;;;;;5027711;28;20057;-65
2023/07/05 13:48:53;;;;;;;1.77;1.00;;;;;;;;;;5024047;28;20045;-65
2023/07/05 13:51:24;;;;;;;3.03;1.33;;;;;;;;;;5031102;28;20042;-69
2023/07/05 13:53:53;;;;;;;2.10;1.40;;;;;;;;;;5026584;28;20490;-66
2023/07/05 13:56:21;;;;;;;2.35;1.25;;;;;;;;;;5026640;28;20053;-66
2023/07/05 13:58:50;;;;;;;3.15;0.93;;;;;;;;;;5029214;28;20050;-70
2023/07/05 14:01:18;;;;;;;2.97;1.10;;;;;;;;;;5021612;28;20080;-68
2023/07/05 14:03:48;;;;;;;1.90;1.08;;;;;;;;;;5025275;28;20053;-69
2023/07/05 14:06:28;;;;;;;3.17;1.30;;;;;;;;;;5017269;28;20050;-70
2023/07/05 14:08:57;;;;;;;3.15;1.10;;;;;;;;;;5019320;28;20042;-66
2023/07/05 14:11:27;;;;;;;4.28;1.48;;;;;;;;;;5016583;28;20053;-66
2023/07/05 14:13:55;;;;;;;4.32;0.90;;;;;;;;;;5021130;28;21618;-66
2023/07/05 14:16:26;;;;;;;6.82;0.95;;;;;;;;;;5020601;28;20045;-65
2023/07/05 14:18:55;;;;;;;1.80;0.93;;;;;;;;;;5021940;28;20416;-65
2023/07/05 14:21:26;;;;;;;1.48;0.93;;;;;;;;;;5022243;28;20034;-70
2023/07/05 14:23:56;;;;;;;2.25;1.00;;;;;;;;;;5022755;28;20049;-66
2023/07/05 14:26:25;;;;;;;1.67;1.02;;;;;;;;;;5015072;28;20438;-67
2023/07/05 14:28:54;;;;;;;2.03;1.00;;;;;;;;;;5007700;28;20050;-69
2023/07/05 14:31:22;;;;;;;3.38;0.82;;;;;;;;;;5005790;28;20045;-67
2023/07/05 14:33:51;;;;;;;1.98;1.08;;;;;;;;;;5007294;28;20060;-66
2023/07/05 14:36:19;;;;;;;3.10;0.70;;;;;;;;;;5005878;28;20070;-65
2023/07/05 14:38:48;;;;;;;2.58;1.00;;;;;;;;;;5008384;28;20132;-66
2023/07/05 14:41:23;;;;;;;3.25;1.17;;;;;;;;;;5003712;28;20042;-69
2023/07/05 14:43:51;;;;;;;;;;;;;;;;;;5009311;28;20053;-69
2023/07/05 14:46:21;;;;;;;1.77;0.90;;;;;;;;;;4989571;28;19921;-67
2023/07/05 14:48:49;;;;;;;1.20;0.75;;;;;;;;;;4986583;28;20056;-70
2023/07/05 14:51:21;;;;;;;1.83;0.63;;;;;;;;;;4989640;28;20097;-68
2023/07/05 14:53:49;;;;;;;0.70;0.60;;;;;;;;;;4988923;28;20574;-65
2023/07/05 14:56:19;;;;;;;1.23;0.70;;;;;;;;;;4987325;28;20438;-68
2023/07/05 14:58:49;;;;;;;2.33;0.82;;;;;;;;;;4986077;28;20054;-65
2023/07/05 15:01:18;;;;;;;2.83;0.82;;;;;;;;;;4988465;28;20479;-65
2023/07/05 15:03:48;;;;;;;1.58;0.80;;;;;;;;;;4986568;28;20124;-66
2023/07/05 15:06:17;;;;;;;2.45;0.80;;;;;;;;;;5002735;28;20058;-64